Time;durP1;ratioP1;P1;durP2;ratioP2;P2;SDS_P1;SDS_P2;PMS_P1;PMS_P2;Temp;Humidity;BMP_temperature;BMP_pressure;BME280_temperature;BME280_humidity;BME280_pressure;Samples;Min_cycle;Max_cycle;Signal;HPM_P1;HPM_P2
2021/08/11 00:01:10;;;;;;;36.28;5.93;;;27.40;93.70;;;;;;5108715;28;20024;-52
2021/08/11 00:03:40;;;;;;;44.55;7.22;;;27.40;94.00;;;;;;5111160;28;20065;-53
2021/08/11 00:06:07;;;;;;;19.40;5.22;;;27.30;94.00;;;;;;5109846;28;20032;-50
2021/08/11 00:08:34;;;;;;;17.42;5.28;;;27.40;94.20;;;;;;5111114;28;20016;-50
2021/08/11 00:11:04;;;;;;;15.63;5.43;;;27.30;94.20;;;;;;5109449;28;20031;-52
2021/08/11 00:13:31;;;;;;;16.38;5.82;;;27.40;94.40;;;;;;5102718;28;20031;-47
2021/08/11 00:16:10;;;;;;;26.38;6.07;;;27.40;94.50;;;;;;5100282;28;20102;-43
2021/08/11 00:18:37;;;;;;;25.50;6.45;;;27.30;94.60;;;;;;5117620;28;20016;-46
2021/08/11 00:21:05;;;;;;;19.77;6.28;;;27.30;94.60;;;;;;5120893;28;20019;-54
2021/08/11 00:23:37;;;;;;;23.85;5.80;;;27.30;94.50;;;;;;5119488;28;20016;-48
2021/08/11 00:26:04;;;;;;;20.27;5.90;;;27.30;94.50;;;;;;5120522;28;20077;-48
2021/08/11 00:28:31;;;;;;;18.85;6.30;;;27.30;94.50;;;;;;5120811;28;20020;-47
2021/08/11 00:30:57;;;;;;;21.00;6.03;;;27.40;94.50;;;;;;5120811;28;20024;-53
2021/08/11 00:33:27;;;;;;;28.23;6.95;;;27.30;94.50;;;;;;5120611;28;20208;-51
2021/08/11 00:36:00;;;;;;;27.05;6.53;;;27.30;94.40;;;;;;5118578;28;20066;-51
2021/08/11 00:38:27;;;;;;;22.23;6.00;;;27.30;94.40;;;;;;5106835;28;20027;-51
2021/08/11 00:40:57;;;;;;;13.93;5.28;;;27.30;94.50;;;;;;5107597;28;20028;-52
2021/08/11 00:43:24;;;;;;;14.13;5.80;;;27.30;94.60;;;;;;5107697;28;20016;-53
2021/08/11 00:45:50;;;;;;;13.75;5.97;;;27.30;94.60;;;;;;5106357;28;20051;-50
2021/08/11 00:48:18;;;;;;;15.88;6.32;;;27.30;94.60;;;;;;5096051;28;20016;-52
2021/08/11 00:50:45;;;;;;;11.07;6.30;;;27.30;94.80;;;;;;5096340;28;20311;-49
2021/08/11 00:53:17;;;;;;;16.38;6.65;;;27.30;94.80;;;;;;5095118;28;20096;-48
2021/08/11 00:55:44;;;;;;;;;;;27.30;94.80;;;;;;5096722;28;20200;-51
2021/08/11 00:58:12;;;;;;;17.15;8.93;;;27.30;94.80;;;;;;5096825;28;19908;-50
2021/08/11 01:00:48;;;;;;;16.45;9.65;;;27.30;94.80;;;;;;5095166;28;20024;-57
2021/08/11 01:03:20;;;;;;;23.50;8.73;;;27.30;94.80;;;;;;5093593;28;20058;-55
2021/08/11 01:05:49;;;;;;;81.97;11.35;;;27.30;94.90;;;;;;5095619;28;20032;-55
2021/08/11 01:08:22;;;;;;;43.55;8.80;;;27.30;94.90;;;;;;5096714;28;20023;-51
2021/08/11 01:10:51;;;;;;;21.05;7.47;;;27.20;94.90;;;;;;5096890;28;20024;-52
2021/08/11 01:13:19;;;;;;;22.98;8.13;;;27.20;95.10;;;;;;5093993;28;20234;-51
2021/08/11 01:15:46;;;;;;;14.25;7.28;;;27.20;95.20;;;;;;5096213;28;20216;-50
2021/08/11 01:18:19;;;;;;;15.18;7.20;;;27.20;95.30;;;;;;5095156;28;20051;-50
2021/08/11 01:21:01;;;;;;;16.45;6.28;;;27.20;95.30;;;;;;5095948;28;20095;-49
2021/08/11 01:23:37;;;;;;;9.60;7.15;;;27.20;95.30;;;;;;5095416;28;20023;-48
2021/08/11 01:26:32;;;;;;;14.85;7.93;;;27.20;95.40;;;;;;5095126;28;20130;-48
2021/08/11 01:29:16;;;;;;;14.05;8.07;;;27.20;95.40;;;;;;5086742;28;20066;-50
2021/08/11 01:32:07;;;;;;;13.00;8.88;;;27.20;95.50;;;;;;5094931;28;20020;-51
2021/08/11 01:34:44;;;;;;;12.90;9.00;;;27.20;95.60;;;;;;5095050;28;20015;-51
2021/08/11 01:37:17;;;;;;;12.27;8.57;;;27.20;95.60;;;;;;5095121;28;20012;-51
2021/08/11 01:39:50;;;;;;;12.45;7.78;;;27.20;95.70;;;;;;5092507;28;20062;-50
2021/08/11 01:42:19;;;;;;;;;;;27.10;95.60;;;;;;5095201;28;20019;-48
2021/08/11 01:45:03;;;;;;;15.18;7.35;;;27.20;95.60;;;;;;5094806;28;19976;-50
2021/08/11 01:47:48;;;;;;;8.15;6.78;;;27.20;95.50;;;;;;5095188;28;20036;-51
2021/08/11 01:50:17;;;;;;;8.90;6.22;;;27.10;95.50;;;;;;5095766;28;20020;-59
2021/08/11 01:52:55;;;;;;;12.65;6.70;;;27.20;95.40;;;;;;5093116;28;20032;-51
2021/08/11 01:55:22;;;;;;;10.65;6.40;;;27.20;95.30;;;;;;5093997;28;20020;-50
2021/08/11 01:57:54;;;;;;;10.38;5.50;;;27.20;95.40;;;;;;5094914;28;20023;-49
2021/08/11 02:00:30;;;;;;;;;;;27.10;95.20;;;;;;5096428;28;20027;-51
2021/08/11 02:03:04;;;;;;;10.75;5.43;;;27.10;95.20;;;;;;5096111;28;19986;-50
2021/08/11 02:05:31;;;;;;;7.57;5.13;;;27.10;95.30;;;;;;5095335;28;20036;-55
2021/08/11 02:08:04;;;;;;;6.65;5.25;;;27.10;95.50;;;;;;5093333;28;20089;-50
2021/08/11 02:10:32;;;;;;;6.50;5.03;;;27.10;95.70;;;;;;5097303;28;20031;-55
2021/08/11 02:13:00;;;;;;;7.90;5.57;;;27.10;95.90;;;;;;5093345;28;20327;-54
2021/08/11 02:15:27;;;;;;;8.02;4.90;;;27.10;96.00;;;;;;5094988;28;20079;-50
2021/08/11 02:17:56;;;;;;;6.05;4.50;;;27.00;96.10;;;;;;5095300;28;20051;-51
2021/08/11 02:20:23;;;;;;;5.85;4.78;;;27.00;96.20;;;;;;5093246;28;20066;-51
2021/08/11 02:22:52;;;;;;;6.68;4.50;;;26.90;96.20;;;;;;5093452;28;20026;-52
2021/08/11 02:25:19;;;;;;;9.43;5.13;;;26.90;96.30;;;;;;5095208;28;20027;-52
2021/08/11 02:28:08;;;;;;;11.75;5.00;;;26.90;96.30;;;;;;5094028;28;20025;-53
2021/08/11 02:30:49;;;;;;;7.05;4.72;;;26.90;96.40;;;;;;5094822;28;20021;-50
2021/08/11 02:33:28;;;;;;;10.20;4.80;;;26.90;96.40;;;;;;5095332;28;20021;-48
2021/08/11 02:36:05;;;;;;;5.75;4.13;;;26.90;96.40;;;;;;5094616;28;20008;-51
2021/08/11 02:38:36;;;;;;;8.80;4.30;;;26.90;96.30;;;;;;5095210;28;20024;-56
2021/08/11 02:41:36;;;;;;;12.18;4.00;;;26.90;96.40;;;;;;5091949;28;20024;-50
2021/08/11 02:44:17;;;;;;;5.25;3.63;;;26.90;96.30;;;;;;5080856;28;20035;-50
2021/08/11 02:46:45;;;;;;;8.23;3.88;;;26.80;96.20;;;;;;5093757;28;20038;-50
2021/08/11 02:49:19;;;;;;;4.93;3.28;;;26.80;96.20;;;;;;5093884;28;20012;-51
2021/08/11 02:51:46;;;;;;;6.75;3.58;;;26.80;96.30;;;;;;5093329;28;20017;-52
2021/08/11 02:54:15;;;;;;;4.78;3.00;;;26.80;96.20;;;;;;5093935;28;20066;-56
2021/08/11 02:56:47;;;;;;;3.92;3.25;;;26.80;96.20;;;;;;5095302;28;20248;-59
2021/08/11 02:59:14;;;;;;;3.10;2.80;;;26.70;96.20;;;;;;5094191;28;20068;-51
2021/08/11 03:01:43;;;;;;;6.50;3.10;;;26.70;96.20;;;;;;5092644;28;20032;-54
2021/08/11 03:04:10;;;;;;;4.35;2.72;;;26.60;96.10;;;;;;5094070;28;20043;-56
2021/08/11 03:06:36;;;;;;;7.22;3.00;;;26.70;96.50;;;;;;5094235;28;20029;-52
2021/08/11 03:09:05;;;;;;;6.22;3.00;;;26.60;96.20;;;;;;5091875;28;20019;-56
2021/08/11 03:11:34;;;;;;;5.13;3.33;;;26.60;96.30;;;;;;5093950;28;20054;-55
2021/08/11 03:14:07;;;;;;;3.35;3.05;;;26.60;96.30;;;;;;5094530;28;20189;-52
2021/08/11 03:16:38;;;;;;;3.03;2.58;;;26.60;96.40;;;;;;5093929;28;20305;-55
2021/08/11 03:19:08;;;;;;;5.25;2.60;;;26.60;96.30;;;;;;5091575;28;20012;-50
2021/08/11 03:21:37;;;;;;;5.63;2.72;;;26.60;96.20;;;;;;5093064;28;20051;-54
2021/08/11 03:24:04;;;;;;;9.50;2.80;;;26.60;96.10;;;;;;5092621;28;20012;-56
2021/08/11 03:26:34;;;;;;;4.80;2.75;;;26.60;96.10;;;;;;5093605;28;20048;-51
2021/08/11 03:29:02;;;;;;;4.72;2.42;;;26.70;96.10;;;;;;5093205;28;20040;-52
2021/08/11 03:31:30;;;;;;;2.35;2.15;;;26.60;96.00;;;;;;5092695;28;20319;-51
2021/08/11 03:33:57;;;;;;;5.30;2.42;;;26.60;96.00;;;;;;5091912;28;20027;-56
2021/08/11 03:36:24;;;;;;;8.68;2.33;;;26.60;96.00;;;;;;5103696;28;20047;-55
2021/08/11 03:38:52;;;;;;;7.03;2.70;;;26.60;96.10;;;;;;5104248;28;20024;-52
2021/08/11 03:41:19;;;;;;;3.78;2.42;;;26.60;96.20;;;;;;5103493;28;20083;-55
2021/08/11 03:43:46;;;;;;;3.78;2.17;;;26.60;96.20;;;;;;5104407;28;20016;-51
2021/08/11 03:46:12;;;;;;;7.10;2.50;;;26.60;96.30;;;;;;5102608;28;20324;-51
2021/08/11 03:48:39;;;;;;;4.45;2.42;;;26.60;96.40;;;;;;5094430;28;20027;-46
2021/08/11 03:51:06;;;;;;;5.90;2.65;;;26.70;96.30;;;;;;5091827;28;20309;-48
2021/08/11 03:53:32;;;;;;;3.38;2.22;;;26.60;96.20;;;;;;5092346;28;20039;-47
2021/08/11 03:55:59;;;;;;;4.20;2.22;;;26.70;96.20;;;;;;5087017;28;20027;-51
2021/08/11 03:58:29;;;;;;;3.53;2.00;;;26.70;96.10;;;;;;5094982;28;20130;-47
2021/08/11 04:00:58;;;;;;;4.45;2.10;;;26.70;96.10;;;;;;5093203;28;20028;-46
2021/08/11 04:03:34;;;;;;;3.83;2.47;;;26.70;96.10;;;;;;5091540;28;20024;-48
2021/08/11 04:06:01;;;;;;;8.43;2.40;;;26.70;96.30;;;;;;5093543;28;20021;-49
2021/08/11 04:08:31;;;;;;;5.80;2.35;;;26.70;96.00;;;;;;5092702;28;20081;-47
2021/08/11 04:10:58;;;;;;;4.78;2.60;;;26.70;96.00;;;;;;5102215;28;20342;-47
2021/08/11 04:13:24;;;;;;;3.88;2.35;;;26.70;96.00;;;;;;5101465;28;20027;-45
2021/08/11 04:15:51;;;;;;;4.22;2.30;;;26.70;96.00;;;;;;5099007;28;20034;-57
2021/08/11 04:18:17;;;;;;;4.00;1.80;;;26.70;95.90;;;;;;5094602;28;20016;-46
2021/08/11 04:20:45;;;;;;;5.28;2.05;;;26.70;95.90;;;;;;5096998;28;20012;-53
2021/08/11 04:23:13;;;;;;;2.60;1.63;;;26.70;95.80;;;;;;5096225;28;20239;-52
2021/08/11 04:25:44;;;;;;;3.25;1.83;;;26.70;95.80;;;;;;5096725;28;20035;-45
2021/08/11 04:28:11;;;;;;;3.58;1.80;;;26.70;95.80;;;;;;5097214;28;20020;-44
2021/08/11 04:30:40;;;;;;;4.78;2.13;;;26.70;95.80;;;;;;5096987;28;20024;-49
2021/08/11 04:33:07;;;;;;;5.70;2.42;;;26.70;95.80;;;;;;5094682;28;20040;-50
2021/08/11 04:35:36;;;;;;;3.35;1.88;;;26.70;95.80;;;;;;5096852;28;20317;-51
2021/08/11 04:38:06;;;;;;;6.43;2.20;;;26.70;95.80;;;;;;5095731;28;20104;-51
2021/08/11 04:40:34;;;;;;;5.60;2.20;;;26.70;95.90;;;;;;5103772;28;20027;-50
2021/08/11 04:43:01;;;;;;;6.85;2.22;;;26.60;95.90;;;;;;5106371;27;20332;-49
2021/08/11 04:45:28;;;;;;;5.03;2.10;;;26.60;95.90;;;;;;5105712;28;20095;-56
2021/08/11 04:47:55;;;;;;;4.13;2.00;;;26.60;95.90;;;;;;5104033;28;20264;-51
2021/08/11 04:50:22;;;;;;;5.13;1.88;;;26.70;96.00;;;;;;5095885;28;20036;-48
2021/08/11 04:52:48;;;;;;;4.97;1.95;;;26.60;95.90;;;;;;5095707;28;20028;-47
2021/08/11 04:55:15;;;;;;;2.45;2.00;;;26.70;95.90;;;;;;5095243;28;20016;-50
2021/08/11 04:57:42;;;;;;;3.42;1.77;;;26.60;96.00;;;;;;5086744;28;20088;-49
2021/08/11 05:00:09;;;;;;;2.63;1.95;;;26.60;96.00;;;;;;5085199;28;20213;-50
2021/08/11 05:02:37;;;;;;;3.40;1.65;;;26.60;95.90;;;;;;5086403;28;20032;-55
2021/08/11 05:05:09;;;;;;;4.35;2.10;;;26.60;95.90;;;;;;5093977;28;20027;-48
2021/08/11 05:07:35;;;;;;;3.28;1.75;;;26.60;95.70;;;;;;5106161;28;20077;-45
2021/08/11 05:10:02;;;;;;;2.38;1.75;;;26.60;95.70;;;;;;5105866;28;20016;-48
2021/08/11 05:12:30;;;;;;;2.65;2.13;;;26.60;95.70;;;;;;5106588;28;20028;-47
2021/08/11 05:15:00;;;;;;;2.65;1.85;;;26.60;95.70;;;;;;5106088;28;20246;-47
2021/08/11 05:17:27;;;;;;;4.20;2.10;;;26.60;95.70;;;;;;5105661;28;20023;-49
2021/08/11 05:19:54;;;;;;;4.88;2.17;;;26.60;95.80;;;;;;5105601;28;20011;-51
2021/08/11 05:22:22;;;;;;;3.65;2.17;;;26.60;95.70;;;;;;5105994;28;20028;-49
2021/08/11 05:24:49;;;;;;;5.43;1.80;;;26.60;95.70;;;;;;5105554;28;20031;-48
2021/08/11 05:27:19;;;;;;;19.38;3.25;;;26.60;95.70;;;;;;5105826;28;20034;-47
2021/08/11 05:29:46;;;;;;;57.00;7.68;;;26.60;95.70;;;;;;5105865;28;20020;-51
2021/08/11 05:32:14;;;;;;;52.53;7.72;;;26.60;95.70;;;;;;5106063;28;20247;-49
2021/08/11 05:34:41;;;;;;;70.05;9.25;;;26.50;95.70;;;;;;5106085;28;20315;-49
2021/08/11 05:37:08;;;;;;;51.17;6.03;;;26.60;95.70;;;;;;5105888;28;20023;-49
2021/08/11 05:39:35;;;;;;;34.08;5.53;;;26.60;95.70;;;;;;5105223;28;20048;-50
2021/08/11 05:42:01;;;;;;;21.98;3.78;;;26.50;95.60;;;;;;5105988;28;20254;-53
2021/08/11 05:44:28;;;;;;;18.73;4.57;;;26.50;95.60;;;;;;5105162;28;20066;-54
2021/08/11 05:46:55;;;;;;;17.90;4.03;;;26.50;95.60;;;;;;5105679;28;20051;-46
2021/08/11 05:49:21;;;;;;;21.63;3.13;;;26.50;95.60;;;;;;5105227;28;20023;-46
2021/08/11 05:51:48;;;;;;;24.98;4.60;;;26.50;95.60;;;;;;5105497;28;20065;-47
2021/08/11 05:54:15;;;;;;;29.67;5.18;;;26.50;95.70;;;;;;5105252;28;20208;-51
2021/08/11 05:56:42;;;;;;;28.75;3.83;;;26.50;95.70;;;;;;5105248;28;20134;-51
2021/08/11 05:59:09;;;;;;;14.05;3.10;;;26.50;95.70;;;;;;5104199;28;20020;-53
2021/08/11 06:01:35;;;;;;;12.38;2.53;;;26.50;95.80;;;;;;5105387;28;20066;-46
2021/08/11 06:04:02;;;;;;;10.32;2.40;;;26.50;95.80;;;;;;5105398;28;20065;-52
2021/08/11 06:06:29;;;;;;;9.55;2.30;;;26.40;95.80;;;;;;5104997;28;20024;-54
2021/08/11 06:08:56;;;;;;;8.27;2.70;;;26.40;95.90;;;;;;5106189;28;20024;-47
2021/08/11 06:11:23;;;;;;;23.85;3.75;;;26.40;95.90;;;;;;5105161;28;20024;-48
2021/08/11 06:13:50;;;;;;;11.52;2.45;;;26.40;95.90;;;;;;5103894;28;20019;-54
2021/08/11 06:16:17;;;;;;;7.15;2.08;;;26.40;95.90;;;;;;5104779;28;20028;-46
2021/08/11 06:18:43;;;;;;;6.20;2.05;;;26.40;95.90;;;;;;5104850;28;20016;-50
2021/08/11 06:21:10;;;;;;;6.68;2.00;;;26.40;96.00;;;;;;5104774;28;20027;-46
2021/08/11 06:23:37;;;;;;;4.72;1.73;;;26.40;96.00;;;;;;5105258;28;20028;-46
2021/08/11 06:26:03;;;;;;;5.72;2.15;;;26.40;96.10;;;;;;5104564;28;20106;-52
2021/08/11 06:28:30;;;;;;;5.28;1.60;;;26.40;96.10;;;;;;5105198;28;20024;-49
2021/08/11 06:30:57;;;;;;;2.83;1.50;;;26.30;96.00;;;;;;5104574;28;20099;-50
2021/08/11 06:33:23;;;;;;;3.35;1.40;;;26.30;96.10;;;;;;5105643;28;20024;-49
2021/08/11 06:35:50;;;;;;;4.82;1.98;;;26.40;96.10;;;;;;5104590;28;20020;-49
2021/08/11 06:38:17;;;;;;;4.57;1.40;;;26.30;96.10;;;;;;5104959;28;20020;-50
2021/08/11 06:40:44;;;;;;;4.00;1.60;;;26.40;96.10;;;;;;5104689;28;20024;-45
2021/08/11 06:43:11;;;;;;;4.90;1.55;;;26.30;96.10;;;;;;5104998;28;20304;-49
2021/08/11 06:45:37;;;;;;;3.67;1.30;;;26.30;96.10;;;;;;5104348;28;20024;-50
2021/08/11 06:48:05;;;;;;;4.55;1.50;;;26.30;96.10;;;;;;5104954;28;20050;-51
2021/08/11 06:50:31;;;;;;;4.90;1.50;;;26.30;96.00;;;;;;5104499;28;20044;-51
2021/08/11 06:52:58;;;;;;;2.22;1.63;;;26.30;96.10;;;;;;5104686;28;20020;-53
2021/08/11 06:55:25;;;;;;;4.50;1.33;;;26.30;96.00;;;;;;5104370;28;20182;-52
2021/08/11 06:57:51;;;;;;;3.58;1.73;;;26.30;96.00;;;;;;5104656;28;20084;-52
2021/08/11 07:00:19;;;;;;;2.42;1.35;;;26.30;96.00;;;;;;5104180;28;20019;-53
2021/08/11 07:02:46;;;;;;;4.25;1.30;;;26.30;96.10;;;;;;5104688;28;20028;-57
2021/08/11 07:05:13;;;;;;;3.75;1.25;;;26.30;96.10;;;;;;5104136;28;20087;-55
2021/08/11 07:07:40;;;;;;;2.45;1.40;;;26.30;96.10;;;;;;5104281;28;20095;-56
2021/08/11 07:10:11;;;;;;;2.70;1.50;;;26.20;96.10;;;;;;5104143;28;20012;-54
2021/08/11 07:12:39;;;;;;;5.43;1.70;;;26.20;96.10;;;;;;5104585;28;20047;-51
2021/08/11 07:15:07;;;;;;;2.00;1.48;;;26.20;96.10;;;;;;5103996;28;20366;-52
2021/08/11 07:17:33;;;;;;;4.90;1.33;;;26.20;96.10;;;;;;5104338;28;20096;-50
2021/08/11 07:20:00;;;;;;;4.57;1.83;;;26.20;96.10;;;;;;5102980;28;20024;-49
2021/08/11 07:22:27;;;;;;;5.13;1.70;;;26.20;96.10;;;;;;5104208;28;20034;-47
2021/08/11 07:24:53;;;;;;;2.55;1.48;;;26.20;96.10;;;;;;5103851;28;20031;-52
2021/08/11 07:27:20;;;;;;;3.80;1.77;;;26.20;96.10;;;;;;5104260;28;20135;-45
2021/08/11 07:29:46;;;;;;;3.97;1.75;;;26.20;96.10;;;;;;5103989;28;20012;-49
2021/08/11 07:32:13;;;;;;;2.95;1.40;;;26.20;96.10;;;;;;5104208;28;20039;-47
2021/08/11 07:34:40;;;;;;;3.42;1.50;;;26.20;96.10;;;;;;5103934;28;20208;-55
2021/08/11 07:37:06;;;;;;;3.83;1.50;;;26.20;96.10;;;;;;5104026;28;20112;-51
2021/08/11 07:39:33;;;;;;;4.70;1.48;;;26.20;96.00;;;;;;5103937;28;20087;-45
2021/08/11 07:42:00;;;;;;;5.88;1.63;;;26.10;96.00;;;;;;5104169;28;20204;-51
2021/08/11 07:44:27;;;;;;;5.00;1.90;;;26.20;96.10;;;;;;5103772;28;20303;-54
2021/08/11 07:46:53;;;;;;;4.82;1.45;;;26.10;96.00;;;;;;5105126;28;20099;-50
2021/08/11 07:49:20;;;;;;;2.17;1.33;;;26.10;95.90;;;;;;5108102;28;20026;-50
2021/08/11 07:51:47;;;;;;;2.20;1.30;;;26.10;95.80;;;;;;5108012;28;20028;-57
2021/08/11 07:54:13;;;;;;;4.80;1.48;;;26.10;95.70;;;;;;5107816;28;20023;-50
2021/08/11 07:56:40;;;;;;;3.13;1.50;;;26.10;95.60;;;;;;5107786;28;20031;-51
2021/08/11 07:59:06;;;;;;;3.78;1.33;;;26.10;95.50;;;;;;5107596;28;20235;-51
2021/08/11 08:01:33;;;;;;;2.33;1.13;;;26.10;95.40;;;;;;5107688;28;20065;-53
2021/08/11 08:03:59;;;;;;;4.03;1.10;;;26.10;95.30;;;;;;5107608;28;20027;-51
2021/08/11 08:06:26;;;;;;;3.90;0.95;;;26.10;95.10;;;;;;5107470;28;20062;-50
2021/08/11 08:08:53;;;;;;;1.75;1.00;;;26.10;95.00;;;;;;5107522;28;20051;-52
2021/08/11 08:11:19;;;;;;;2.15;1.08;;;26.10;94.90;;;;;;5107440;28;20042;-49
2021/08/11 08:13:48;;;;;;;5.53;1.27;;;26.10;94.80;;;;;;5107614;28;20331;-54
2021/08/11 08:16:16;;;;;;;3.55;1.02;;;26.00;94.70;;;;;;5107294;28;20081;-48
2021/08/11 08:18:43;;;;;;;2.40;0.82;;;26.00;94.70;;;;;;5107387;28;20247;-51
2021/08/11 08:21:09;;;;;;;3.55;1.05;;;26.00;94.60;;;;;;5107259;28;20098;-55
2021/08/11 08:23:36;;;;;;;6.38;0.80;;;26.00;94.50;;;;;;5107710;28;20028;-52
2021/08/11 08:26:03;;;;;;;1.23;0.93;;;26.00;94.50;;;;;;5107020;28;20064;-53
2021/08/11 08:28:29;;;;;;;1.95;0.75;;;26.00;94.50;;;;;;5107684;28;20312;-53
2021/08/11 08:30:56;;;;;;;2.65;1.10;;;26.00;94.60;;;;;;5107054;28;20015;-49
2021/08/11 08:33:23;;;;;;;0.80;0.55;;;26.00;94.60;;;;;;5107501;28;20024;-51
2021/08/11 08:35:49;;;;;;;2.95;0.93;;;26.00;94.60;;;;;;5106992;28;20076;-52
2021/08/11 08:38:18;;;;;;;3.65;0.90;;;26.00;94.60;;;;;;5107330;28;20035;-51
2021/08/11 08:40:46;;;;;;;2.00;1.00;;;26.00;94.60;;;;;;5106926;28;20024;-50
2021/08/11 08:43:13;;;;;;;2.45;0.95;;;26.00;94.60;;;;;;5107279;28;20054;-52
2021/08/11 08:45:44;;;;;;;1.60;0.95;;;26.00;94.60;;;;;;5106604;28;20212;-49
2021/08/11 08:48:11;;;;;;;1.05;0.80;;;26.00;94.70;;;;;;5107112;28;20040;-54
2021/08/11 08:50:39;;;;;;;2.35;0.90;;;26.00;94.70;;;;;;5106778;28;20087;-49
2021/08/11 08:53:05;;;;;;;2.88;0.77;;;26.00;94.70;;;;;;5105702;28;20224;-50
2021/08/11 08:55:33;;;;;;;3.88;1.15;;;26.00;94.70;;;;;;5106791;28;20020;-53
2021/08/11 08:58:01;;;;;;;1.67;0.85;;;25.90;94.70;;;;;;5106521;28;20034;-53
2021/08/11 09:00:30;;;;;;;2.03;0.70;;;25.90;94.70;;;;;;5106533;28;20023;-56
2021/08/11 09:02:56;;;;;;;4.53;1.10;;;25.90;94.70;;;;;;5106911;28;20035;-52
2021/08/11 09:05:23;;;;;;;2.38;0.98;;;25.90;94.80;;;;;;5106340;28;20208;-55
2021/08/11 09:07:49;;;;;;;3.40;0.90;;;25.90;94.80;;;;;;5106834;28;20063;-51
2021/08/11 09:10:28;;;;;;;3.95;1.20;;;25.90;94.80;;;;;;5106368;28;20016;-49
2021/08/11 09:13:06;;;;;;;4.05;1.10;;;25.90;94.80;;;;;;5105241;28;20103;-54
2021/08/11 09:15:38;;;;;;;7.13;0.98;;;25.90;94.80;;;;;;5106292;28;20042;-49
2021/08/11 09:18:27;;;;;;;2.67;1.00;;;25.90;94.90;;;;;;5106506;28;20169;-50
2021/08/11 09:20:59;;;;;;;4.43;1.10;;;25.90;95.00;;;;;;5106199;28;20032;-45
2021/08/11 09:23:46;;;;;;;4.60;1.20;;;25.90;95.00;;;;;;5106398;28;20035;-53
2021/08/11 09:26:15;;;;;;;3.53;1.10;;;25.90;95.10;;;;;;5105947;28;20092;-48
2021/08/11 09:28:44;;;;;;;4.75;1.10;;;25.90;95.10;;;;;;5105971;28;20027;-56
2021/08/11 09:31:30;;;;;;;4.38;1.60;;;25.90;95.20;;;;;;5106029;28;20034;-52
2021/08/11 09:34:08;;;;;;;1.85;1.05;;;25.90;95.20;;;;;;5105799;28;20024;-55
2021/08/11 09:36:50;;;;;;;4.07;1.20;;;25.90;95.10;;;;;;5105914;28;20354;-58
2021/08/11 09:39:18;;;;;;;4.53;1.40;;;25.90;95.10;;;;;;5105731;28;20031;-59
2021/08/11 09:42:03;;;;;;;4.55;1.65;;;25.90;95.10;;;;;;5105795;28;20095;-59
2021/08/11 09:44:29;;;;;;;4.40;1.80;;;25.90;95.10;;;;;;5105611;28;20024;-54
2021/08/11 09:47:13;;;;;;;6.25;2.05;;;25.80;95.10;;;;;;5105709;28;20046;-47
2021/08/11 09:49:40;;;;;;;6.53;1.63;;;25.80;95.10;;;;;;5105343;28;20028;-55
2021/08/11 09:52:07;;;;;;;5.10;1.70;;;25.80;95.00;;;;;;5105653;28;20023;-48
2021/08/11 09:54:34;;;;;;;4.07;1.40;;;25.80;95.00;;;;;;5105504;28;20020;-51
2021/08/11 09:57:00;;;;;;;5.90;1.30;;;25.80;94.90;;;;;;5105356;28;20083;-49
2021/08/11 09:59:27;;;;;;;5.57;1.40;;;25.70;94.90;;;;;;5105368;28;20024;-53
2021/08/11 10:02:16;;;;;;;17.27;1.85;;;25.70;94.90;;;;;;5105593;28;20021;-49
2021/08/11 10:04:42;;;;;;;15.52;2.00;;;25.70;94.90;;;;;;5105193;28;20020;-51
2021/08/11 10:07:09;;;;;;;15.63;1.90;;;25.70;94.90;;;;;;5105421;28;20016;-48
2021/08/11 10:09:36;;;;;;;16.88;2.05;;;25.70;94.90;;;;;;5104186;28;20304;-47
2021/08/11 10:12:03;;;;;;;15.55;2.03;;;25.70;95.00;;;;;;5105250;28;20051;-51
2021/08/11 10:14:35;;;;;;;11.57;1.98;;;25.70;95.00;;;;;;5104906;28;20216;-48
2021/08/11 10:17:03;;;;;;;10.97;1.57;;;25.70;95.00;;;;;;5104926;28;20020;-55
2021/08/11 10:19:32;;;;;;;8.48;1.48;;;25.70;95.00;;;;;;5104780;28;20348;-61
2021/08/11 10:22:14;;;;;;;10.68;1.90;;;25.60;95.00;;;;;;5104902;28;20020;-52
2021/08/11 10:24:41;;;;;;;10.45;1.70;;;25.70;95.10;;;;;;5104507;28;20037;-49
2021/08/11 10:27:09;;;;;;;4.57;1.25;;;25.60;95.10;;;;;;5104961;28;20055;-56
2021/08/11 10:29:39;;;;;;;9.85;1.83;;;25.60;95.10;;;;;;5104680;28;20020;-48
2021/08/11 10:32:09;;;;;;;6.90;1.20;;;25.60;95.10;;;;;;5104987;28;20219;-51
2021/08/11 10:34:37;;;;;;;7.07;1.55;;;25.60;95.20;;;;;;5104793;28;20016;-48
2021/08/11 10:37:05;;;;;;;7.93;1.70;;;25.60;95.20;;;;;;5104743;28;20065;-54
2021/08/11 10:39:32;;;;;;;5.60;1.77;;;25.60;95.10;;;;;;5104703;28;20024;-56
2021/08/11 10:42:08;;;;;;;7.15;2.10;;;25.60;95.20;;;;;;5104660;28;20027;-50
2021/08/11 10:44:35;;;;;;;6.40;2.30;;;25.60;95.20;;;;;;5104470;28;20045;-45
2021/08/11 10:47:03;;;;;;;10.88;2.72;;;25.50;95.20;;;;;;5104797;28;20313;-41
2021/08/11 10:49:32;;;;;;;7.90;2.30;;;25.50;95.10;;;;;;5103364;28;20020;-45
2021/08/11 10:52:14;;;;;;;8.00;2.40;;;25.50;95.10;;;;;;5104409;28;20079;-47
2021/08/11 10:54:51;;;;;;;;;;;25.50;95.10;;;;;;5105138;28;20031;-51
2021/08/11 10:57:38;;;;;;;7.68;2.45;;;25.50;95.10;;;;;;5104569;28;19908;-51
2021/08/11 11:00:21;;;;;;;7.18;2.45;;;25.50;95.20;;;;;;5091135;28;20052;-48
2021/08/11 11:02:52;;;;;;;;;;;25.50;95.20;;;;;;5105009;28;20027;-50
2021/08/11 11:05:21;;;;;;;4.95;2.08;;;25.50;95.50;;;;;;5104193;28;19956;-48
2021/08/11 11:08:10;;;;;;;5.88;2.10;;;25.50;95.30;;;;;;5104848;28;20102;-47
2021/08/11 11:10:42;;;;;;;7.47;2.53;;;25.50;95.30;;;;;;5104408;28;20024;-49
2021/08/11 11:13:29;;;;;;;7.78;2.10;;;25.50;95.30;;;;;;5104607;28;20030;-51
2021/08/11 11:15:57;;;;;;;4.40;2.45;;;25.50;95.30;;;;;;5104028;28;20324;-47
2021/08/11 11:18:24;;;;;;;7.78;1.83;;;25.50;95.30;;;;;;5104639;28;20024;-50
2021/08/11 11:20:57;;;;;;;4.60;1.70;;;25.50;95.30;;;;;;5103954;28;20020;-46
2021/08/11 11:23:34;;;;;;;8.63;1.90;;;25.60;95.20;;;;;;5104406;28;20035;-56
2021/08/11 11:26:02;;;;;;;8.82;2.60;;;25.60;95.20;;;;;;5104015;28;20347;-45
2021/08/11 11:28:53;;;;;;;5.00;2.92;;;25.70;95.00;;;;;;5104032;28;20039;-48
2021/08/11 11:31:48;;;;;;;9.23;2.63;;;25.90;94.60;;;;;;5103915;28;20296;-57
2021/08/11 11:34:36;;;;;;;30.02;3.83;;;26.30;94.20;;;;;;5104179;28;20047;-52
2021/08/11 11:37:03;;;;;;;46.70;4.20;;;26.50;93.80;;;;;;5104113;28;20024;-51
2021/08/11 11:39:35;;;;;;;14.50;2.13;;;26.60;93.50;;;;;;5104084;28;20035;-49
2021/08/11 11:42:08;;;;;;;;;;;26.70;93.40;;;;;;5104502;28;20035;-47
2021/08/11 11:44:47;;;;;;;11.40;1.80;;;26.80;92.80;;;;;;5103678;28;19938;-48
2021/08/11 11:47:38;;;;;;;6.68;1.67;;;27.10;92.50;;;;;;5103809;28;20058;-48
2021/08/11 11:50:20;;;;;;;5.35;1.23;;;27.30;91.80;;;;;;5103769;28;20255;-55
2021/08/11 11:52:56;;;;;;;5.57;1.63;;;27.50;91.60;;;;;;5103942;28;20027;-52
2021/08/11 11:55:37;;;;;;;9.52;1.45;;;27.50;91.50;;;;;;5103724;28;20031;-48
2021/08/11 11:58:17;;;;;;;7.80;1.50;;;27.40;91.60;;;;;;5104123;28;20032;-50
2021/08/11 12:01:03;;;;;;;3.42;1.30;;;27.10;92.00;;;;;;5103796;28;20109;-48
2021/08/11 12:03:35;;;;;;;5.13;1.50;;;26.90;92.30;;;;;;5104075;28;20231;-48
2021/08/11 12:06:02;;;;;;;3.50;1.27;;;26.80;92.10;;;;;;5103670;28;20069;-52
2021/08/11 12:08:29;;;;;;;5.03;1.33;;;26.70;91.90;;;;;;5104124;28;20145;-49
2021/08/11 12:11:08;;;;;;;3.00;1.25;;;26.70;92.30;;;;;;5103642;28;20313;-51
2021/08/11 12:13:46;;;;;;;3.35;1.30;;;26.70;92.70;;;;;;5104051;28;20032;-54
2021/08/11 12:16:17;;;;;;;3.42;1.50;;;26.70;93.20;;;;;;5103619;28;20077;-49
2021/08/11 12:18:47;;;;;;;2.75;1.80;;;26.80;93.10;;;;;;5103564;28;20339;-48
2021/08/11 12:21:15;;;;;;;3.08;1.33;;;26.80;92.80;;;;;;5103327;28;20066;-50
2021/08/11 12:23:43;;;;;;;15.88;3.13;;;26.80;92.90;;;;;;5103488;28;20110;-49
2021/08/11 12:26:15;;;;;;;13.63;2.35;;;26.80;92.70;;;;;;5103277;28;20050;-49
2021/08/11 12:28:49;;;;;;;21.42;3.42;;;26.80;93.20;;;;;;5103277;28;20040;-47
2021/08/11 12:31:17;;;;;;;27.90;3.25;;;26.80;92.70;;;;;;5103596;28;20095;-51
2021/08/11 12:33:46;;;;;;;32.97;3.80;;;26.90;93.00;;;;;;5105654;28;20027;-49
2021/08/11 12:36:19;;;;;;;18.67;2.78;;;26.90;93.00;;;;;;5107033;28;20089;-48
2021/08/11 12:39:17;;;;;;;29.33;4.28;;;26.90;92.90;;;;;;5107039;28;20032;-49
2021/08/11 12:41:46;;;;;;;12.63;3.05;;;27.00;93.00;;;;;;5107055;28;20028;-48
2021/08/11 12:44:21;;;;;;;36.90;4.50;;;27.00;93.10;;;;;;5106910;28;20024;-52
2021/08/11 12:46:53;;;;;;;39.60;5.00;;;27.10;93.10;;;;;;5106756;28;20040;-57
2021/08/11 12:49:25;;;;;;;38.03;4.63;;;27.00;93.10;;;;;;5106736;28;20020;-55
2021/08/11 12:52:09;;;;;;;70.90;7.85;;;27.10;93.10;;;;;;5106662;28;20087;-54
2021/08/11 12:54:58;;;;;;;38.17;4.88;;;27.10;92.90;;;;;;5106660;28;20012;-53
2021/08/11 12:57:46;;;;;;;44.08;5.65;;;27.10;93.10;;;;;;5106772;28;20064;-47
2021/08/11 13:00:15;;;;;;;34.83;5.55;;;27.10;93.20;;;;;;5092953;28;20038;-47
2021/08/11 13:02:42;;;;;;;34.75;5.53;;;27.20;93.20;;;;;;5106917;28;20267;-49